createdAt,value
2022-09-16T00:00:15.923Z,41.1
2022-09-16T00:05:16.031Z,42.0
2022-09-16T00:10:18.959Z,43.4
2022-09-16T00:15:18.948Z,45.3
2022-09-16T00:20:19.002Z,44.4
2022-09-16T00:25:19.014Z,45.9
2022-09-16T00:30:18.907Z,43.2
2022-09-16T00:35:18.997Z,43.1
2022-09-16T00:40:19.030Z,43.8
2022-09-16T00:45:18.996Z,42.7
2022-09-16T00:50:15.898Z,42.3
2022-09-16T00:55:15.915Z,42.8
2022-09-16T01:00:19.058Z,43.2
2022-09-16T01:05:18.939Z,45.2
2022-09-16T01:10:18.952Z,44.5
2022-09-16T01:15:19.182Z,44.5
2022-09-16T01:20:19.098Z,44.2
2022-09-16T01:25:18.989Z,43.9
2022-09-16T01:30:19.089Z,44.2
2022-09-16T01:35:19.089Z,44.8
2022-09-16T01:40:19.161Z,43.0
2022-09-16T01:45:15.979Z,43.4
2022-09-16T01:50:15.995Z,43.7
2022-09-16T01:55:19.546Z,43.6
2022-09-16T02:00:19.086Z,42.7
2022-09-16T02:05:19.113Z,41.7
2022-09-16T02:10:19.088Z,41.7
2022-09-16T02:15:19.027Z,44.2
2022-09-16T02:20:19.081Z,43.8
2022-09-16T02:25:19.131Z,43.0
2022-09-16T02:30:19.119Z,44.0
2022-09-16T02:35:19.140Z,44.1
2022-09-16T02:40:16.138Z,44.2
2022-09-16T02:45:19.058Z,43.2
2022-09-16T02:50:19.042Z,43.1
2022-09-16T02:55:19.103Z,44.0
2022-09-16T03:00:19.035Z,42.9
2022-09-16T03:05:19.149Z,42.3
2022-09-16T03:10:19.127Z,43.4
2022-09-16T03:15:19.076Z,43.4
2022-09-16T03:20:19.119Z,43.1
2022-09-16T03:25:19.124Z,43.9
2022-09-16T03:30:16.233Z,42.1
2022-09-16T03:35:16.085Z,43.1
2022-09-16T03:40:19.278Z,42.2
2022-09-16T03:45:19.311Z,43.5
2022-09-16T03:50:19.239Z,43.5
2022-09-16T03:55:19.157Z,42.2
2022-09-16T04:00:17.475Z,43.4
2022-09-16T04:05:17.433Z,42.5
2022-09-16T04:10:20.648Z,43.5
2022-09-16T04:15:21.047Z,42.4
2022-09-16T04:20:20.586Z,43.0
2022-09-16T04:25:20.557Z,42.8
2022-09-16T04:30:18.630Z,42.6
2022-09-16T04:35:18.562Z,42.6
2022-09-16T04:40:15.703Z,42.2
2022-09-16T04:45:15.606Z,44.0
2022-09-16T04:50:18.620Z,43.3
2022-09-16T04:55:18.647Z,43.8
2022-09-16T05:00:18.606Z,44.3
2022-09-16T05:05:18.618Z,42.0
2022-09-16T05:10:18.567Z,41.4
2022-09-16T05:15:18.661Z,41.8
2022-09-16T05:20:18.677Z,43.0
2022-09-16T05:25:18.645Z,43.7
2022-09-16T05:30:22.710Z,42.7
2022-09-16T05:35:15.596Z,43.9
2022-09-16T05:40:15.768Z,42.8
2022-09-16T05:45:24.108Z,43.9
2022-09-16T05:50:18.676Z,44.7
2022-09-16T05:55:19.024Z,44.9
2022-09-16T06:00:18.693Z,44.5
2022-09-16T06:05:18.789Z,44.9
2022-09-16T06:10:18.909Z,43.6
2022-09-16T06:15:18.732Z,44.0
2022-09-16T06:20:18.681Z,44.2
2022-09-16T06:25:15.763Z,43.9
2022-09-16T06:30:15.550Z,44.6
2022-09-16T06:35:18.768Z,43.4
2022-09-16T06:40:18.852Z,42.4
2022-09-16T06:45:18.843Z,42.6
2022-09-16T06:50:18.770Z,44.3
2022-09-16T06:55:18.844Z,43.1
2022-09-16T07:00:18.757Z,43.1
2022-09-16T07:05:18.747Z,42.7
2022-09-16T07:10:18.825Z,43.9
2022-09-16T07:15:18.760Z,43.9
2022-09-16T07:20:15.706Z,44.5
2022-09-16T07:25:15.775Z,42.8
2022-09-16T07:30:18.859Z,42.7
2022-09-16T07:35:18.866Z,43.1
2022-09-16T07:40:18.929Z,42.4
2022-09-16T07:45:18.858Z,42.8
2022-09-16T07:50:18.908Z,42.8
2022-09-16T07:55:18.809Z,42.2
2022-09-16T08:00:18.833Z,42.4
2022-09-16T08:05:18.874Z,43.5
2022-09-16T08:10:15.856Z,44.0
2022-09-16T08:15:15.781Z,44.4
2022-09-16T08:20:18.942Z,43.4
2022-09-16T08:25:18.953Z,42.9
2022-09-16T08:30:18.911Z,43.1
2022-09-16T08:35:18.962Z,43.0
2022-09-16T08:40:18.992Z,43.4
2022-09-16T08:45:18.918Z,43.2
2022-09-16T08:50:18.927Z,42.2
2022-09-16T08:55:18.934Z,42.8
2022-09-16T09:00:18.897Z,42.5
2022-09-16T09:05:15.841Z,42.6
2022-09-16T09:10:15.839Z,42.4
2022-09-16T09:15:18.951Z,42.6
2022-09-16T09:20:18.992Z,42.3
2022-09-16T09:25:18.982Z,42.5
2022-09-16T09:30:19.017Z,42.7
2022-09-16T09:35:19.104Z,42.2
2022-09-16T09:40:19.134Z,42.0
2022-09-16T09:45:18.950Z,42.0
2022-09-16T09:50:19.052Z,42.5
2022-09-16T09:55:19.020Z,42.4
2022-09-16T10:00:15.942Z,42.6
2022-09-16T10:05:16.096Z,42.2
2022-09-16T10:10:19.245Z,42.0
2022-09-16T10:15:18.999Z,42.3
2022-09-16T10:20:18.976Z,42.5
2022-09-16T10:25:19.065Z,42.3
2022-09-16T10:30:19.078Z,43.4
2022-09-16T10:35:19.048Z,42.9
2022-09-16T10:40:19.197Z,44.0
2022-09-16T10:45:19.062Z,43.5
2022-09-16T10:50:15.983Z,44.4
2022-09-16T10:55:15.957Z,43.8
2022-09-16T11:00:19.094Z,44.1
2022-09-16T11:05:21.712Z,43.3
2022-09-16T11:10:19.090Z,43.3
2022-09-16T11:15:19.033Z,43.3
2022-09-16T11:20:19.225Z,43.2
2022-09-16T11:25:19.116Z,43.1
2022-09-16T11:30:19.060Z,43.7
2022-09-16T11:35:19.166Z,43.8
2022-09-16T11:40:19.134Z,43.2
2022-09-16T11:45:16.083Z,43.7
2022-09-16T11:50:16.023Z,43.7
2022-09-16T11:55:19.109Z,43.7
2022-09-16T12:00:19.222Z,44.0
2022-09-16T12:05:19.182Z,44.2
2022-09-16T12:10:19.162Z,43.8
2022-09-16T12:15:19.152Z,44.2
2022-09-16T12:20:19.186Z,43.9
2022-09-16T12:25:19.228Z,43.9
2022-09-16T12:30:19.225Z,44.3
2022-09-16T12:35:19.269Z,44.0
2022-09-16T12:40:16.158Z,44.1
2022-09-16T12:45:19.370Z,44.4
2022-09-16T12:50:19.212Z,44.1
2022-09-16T12:55:19.321Z,45.0
2022-09-16T13:00:19.187Z,45.0
2022-09-16T13:05:19.274Z,44.5
2022-09-16T13:10:26.481Z,45.4
2022-09-16T13:15:19.225Z,45.0
2022-09-16T13:20:19.303Z,45.5
2022-09-16T13:25:19.273Z,44.9
2022-09-16T13:30:16.396Z,44.9
2022-09-16T13:35:16.238Z,46.0
2022-09-16T13:40:19.369Z,46.5
2022-09-16T13:45:22.129Z,46.5
2022-09-16T13:50:19.366Z,46.5
2022-09-16T13:55:19.325Z,46.1
2022-09-16T14:00:19.276Z,46.0
2022-09-16T14:05:19.259Z,46.0
2022-09-16T14:10:19.444Z,47.6
2022-09-16T14:15:19.374Z,45.8
2022-09-16T14:20:19.432Z,46.5
2022-09-16T14:25:28.630Z,46.4
2022-09-16T14:30:16.269Z,46.8
2022-09-16T14:35:19.455Z,46.9
2022-09-16T14:40:19.402Z,47.6
2022-09-16T14:45:19.435Z,46.9
2022-09-16T14:50:19.417Z,47.2
2022-09-16T14:55:19.461Z,47.4
2022-09-16T15:00:19.429Z,46.9
2022-09-16T15:05:19.399Z,47.0
2022-09-16T15:10:19.388Z,46.7
2022-09-16T15:15:19.622Z,46.3
2022-09-16T15:20:16.393Z,46.9
2022-09-16T15:25:19.564Z,47.0
2022-09-16T15:30:19.498Z,46.7
2022-09-16T15:35:19.565Z,48.3
2022-09-16T15:40:19.646Z,47.4
2022-09-16T15:45:19.537Z,47.9
2022-09-16T15:50:19.501Z,47.0
2022-09-16T15:55:19.527Z,47.8
2022-09-16T16:00:19.587Z,46.5
2022-09-16T16:05:19.550Z,46.6
2022-09-16T16:10:16.463Z,46.3
2022-09-16T16:15:16.432Z,47.1
2022-09-16T16:20:19.542Z,47.4
2022-09-16T16:25:20.052Z,46.2
2022-09-16T16:30:19.445Z,46.3
2022-09-16T16:35:19.562Z,47.5
2022-09-16T16:40:19.786Z,46.3
2022-09-16T16:45:19.483Z,46.6
2022-09-16T16:50:19.606Z,44.9
2022-09-16T16:55:19.737Z,46.7
2022-09-16T17:00:19.550Z,46.2
2022-09-16T17:05:16.611Z,48.3
2022-09-16T17:10:19.826Z,46.0
2022-09-16T17:15:19.666Z,48.3
2022-09-16T17:20:19.624Z,47.9
2022-09-16T17:25:19.652Z,47.2
2022-09-16T17:30:19.750Z,47.5
2022-09-16T17:35:19.656Z,47.3
2022-09-16T17:40:19.686Z,47.5
2022-09-16T17:45:19.797Z,46.8
2022-09-16T17:50:22.845Z,47.2
2022-09-16T17:55:16.589Z,47.0
2022-09-16T18:00:16.598Z,49.1
2022-09-16T18:05:19.910Z,49.9
2022-09-16T18:10:19.795Z,50.1
2022-09-16T18:15:19.781Z,48.8
2022-09-16T18:20:19.684Z,48.7
2022-09-16T18:25:19.746Z,48.0
2022-09-16T18:30:19.858Z,48.7
2022-09-16T18:35:19.804Z,48.6
2022-09-16T18:40:19.788Z,49.0
2022-09-16T18:45:19.802Z,48.9
2022-09-16T18:50:16.691Z,49.1
2022-09-16T18:55:16.671Z,49.7
2022-09-16T19:00:19.932Z,49.1
2022-09-16T19:05:19.736Z,49.1
2022-09-16T19:10:19.663Z,50.0
2022-09-16T19:15:19.894Z,49.8
2022-09-16T19:20:19.845Z,50.5
2022-09-16T19:25:19.781Z,50.6
2022-09-16T19:30:19.933Z,50.4
2022-09-16T19:35:19.967Z,49.3
2022-09-16T19:40:20.013Z,50.6
2022-09-16T19:45:16.740Z,51.0
2022-09-16T19:50:19.910Z,49.3
2022-09-16T19:55:19.855Z,50.2
2022-09-16T20:00:19.839Z,51.3
2022-09-16T20:05:19.925Z,49.9
2022-09-16T20:10:19.910Z,49.1
2022-09-16T20:15:19.844Z,50.8
2022-09-16T20:20:19.865Z,49.4
2022-09-16T20:25:23.366Z,49.3
2022-09-16T20:30:19.936Z,50.1
2022-09-16T20:35:16.970Z,50.1
2022-09-16T20:40:17.047Z,49.6
2022-09-16T20:45:20.045Z,49.5
2022-09-16T20:50:19.980Z,49.5
2022-09-16T20:55:20.122Z,48.3
2022-09-16T21:00:20.080Z,48.2
2022-09-16T21:05:19.878Z,50.8
2022-09-16T21:10:20.007Z,50.2
2022-09-16T21:15:19.953Z,49.2
2022-09-16T21:20:19.969Z,48.6
2022-09-16T21:25:19.930Z,49.5
2022-09-16T21:30:16.939Z,49.9
2022-09-16T21:35:17.079Z,49.4
2022-09-16T21:40:20.118Z,50.4
2022-09-16T21:45:19.985Z,50.4
2022-09-16T21:50:20.010Z,50.2
2022-09-16T21:55:19.957Z,48.5
2022-09-16T22:00:20.042Z,49.3
2022-09-16T22:05:20.125Z,48.7
2022-09-16T22:10:20.065Z,49.1
2022-09-16T22:15:20.030Z,50.0
2022-09-16T22:20:16.843Z,50.8
2022-09-16T22:25:16.986Z,50.6
2022-09-16T22:30:20.072Z,49.8
2022-09-16T22:35:20.064Z,49.6
2022-09-16T22:40:20.130Z,49.3
2022-09-16T22:45:20.122Z,49.6
2022-09-16T22:50:20.061Z,50.3
2022-09-16T22:55:20.121Z,49.1
2022-09-16T23:00:20.087Z,49.3
2022-09-16T23:05:20.096Z,50.0
2022-09-16T23:10:20.018Z,48.8
2022-09-16T23:15:16.974Z,49.5
2022-09-16T23:20:17.060Z,49.4
2022-09-16T23:25:20.154Z,49.1
2022-09-16T23:30:20.133Z,49.3
2022-09-16T23:35:20.192Z,48.4
2022-09-16T23:40:20.205Z,49.5
2022-09-16T23:45:20.181Z,49.4
2022-09-16T23:50:20.196Z,48.8
2022-09-16T23:55:20.215Z,48.3
